Chicago Rockford International Airport
KRFD : now visible

Airfield :











YOU CAN JOIN US ON...

 
LOGIN :

Register | Disclaimer

   EN    FR    IT 

 









Legend :    VFR   Marginal VFR   IFR   Intensive IFR   Very Intensive IFR
Visi :
Ceiling :
>= 8 km
>= 3000ft
5 to 8 km
1000 to 3000 ft
1500m to 5 km
500 to 1000 ft
800 to 1500m
200 to 500 ft
< 800m
< 200 ft
Symbols :   Thunderstorms  Fog  Heavy snow  Heavy precipitations  Wind > 20 kt







- Airport Elevation : 742 ft
- IATA code : RFD


KRFD - Chicago Rockford International

CURRENT METAR :
  • 270154Z 09008G17KT 10SM SCT250 19/12 A3006 RMK AO2 SLP176 T01890122 $

EXPIRED METARs :
  • 270113Z 08010KT 10SM FEW055 SCT250 21/14 A3004 RMK AO2 T02060144 $
  • 270054Z COR 310SM FEW055 SCT250 23/12 A3004 RMK AO2 SLP168 T02330117 $

TAF KRFD
Valid from the 27 at 00:00 until the 28 at 00:00 UTC


262330Z 2700/2724 07005KT P6SM FEW040 SCT250
FM271400 11010KT P6SM -SHRA OVC025
FM271800 12009KT P6SM VCSH SCT025 BKN040 BKN120
PROB30 2720/2724 2SM TSRA OVC035CB
KZAU FIR / North America



MET'MAP, your aeronautical weather chart ! - Copyright ORBIFLY December 2007 - Disclaimer

ORBIFLY MET'MAP TEAM :

Programming & Development : Alexandra Zaïnal
Concept & Development : Baudouin d'Aumeries
Co-Development & Prog : Marc-Olivier Méhu
Technical & hardware support : Manuel Goepfert

Contact : metmap@orbifly.com




SOURCES & CREDITS :

   NOAA       Earth
Advisory